sensor_id;sensor_type;location;lat;lon;timestamp;pressure;altitude;pressure_sealevel;temperature;humidity
6851;BME280;3464;42.728;23.296;2022-10-04T00:00:27;95477.00;;;15.86;62.55
6851;BME280;3464;42.728;23.296;2022-10-04T00:02:55;95482.64;;;15.69;63.13
6851;BME280;3464;42.728;23.296;2022-10-04T00:05:21;95484.22;;;15.81;63.07
6851;BME280;3464;42.728;23.296;2022-10-04T00:07:49;95484.09;;;15.96;62.32
6851;BME280;3464;42.728;23.296;2022-10-04T00:10:23;95485.45;;;15.88;62.51
6851;BME280;3464;42.728;23.296;2022-10-04T00:12:55;95486.92;;;16.11;62.01
6851;BME280;3464;42.728;23.296;2022-10-04T00:15:22;95481.37;;;16.17;61.82
6851;BME280;3464;42.728;23.296;2022-10-04T00:20:55;95476.91;;;15.96;61.68
6851;BME280;3464;42.728;23.296;2022-10-04T00:23:26;95480.61;;;16.08;61.73
6851;BME280;3464;42.728;23.296;2022-10-04T00:25:57;95471.71;;;15.58;62.66
6851;BME280;3464;42.728;23.296;2022-10-04T00:28:43;95465.63;;;15.80;62.01
6851;BME280;3464;42.728;23.296;2022-10-04T00:31:12;95472.45;;;15.71;62.18
6851;BME280;3464;42.728;23.296;2022-10-04T00:33:40;95461.77;;;15.86;61.50
6851;BME280;3464;42.728;23.296;2022-10-04T00:38:44;95466.14;;;15.70;61.23
6851;BME280;3464;42.728;23.296;2022-10-04T00:41:11;95460.14;;;15.76;61.56
6851;BME280;3464;42.728;23.296;2022-10-04T00:43:40;95461.15;;;15.58;61.93
6851;BME280;3464;42.728;23.296;2022-10-04T00:46:10;95455.07;;;15.77;61.65
6851;BME280;3464;42.728;23.296;2022-10-04T00:48:45;95461.22;;;15.48;62.52
6851;BME280;3464;42.728;23.296;2022-10-04T00:51:20;95452.52;;;15.76;61.92
6851;BME280;3464;42.728;23.296;2022-10-04T00:53:58;95448.32;;;15.76;61.48
6851;BME280;3464;42.728;23.296;2022-10-04T00:56:39;95448.23;;;15.84;61.20
6851;BME280;3464;42.728;23.296;2022-10-04T00:59:12;95446.61;;;15.75;61.50
6851;BME280;3464;42.728;23.296;2022-10-04T01:01:37;95450.29;;;15.39;62.06
6851;BME280;3464;42.728;23.296;2022-10-04T01:04:04;95453.27;;;15.32;62.52
6851;BME280;3464;42.728;23.296;2022-10-04T01:06:30;95452.84;;;15.37;62.36
6851;BME280;3464;42.728;23.296;2022-10-04T01:09:00;95450.42;;;15.14;62.84
6851;BME280;3464;42.728;23.296;2022-10-04T01:11:25;95452.41;;;15.31;62.80
6851;BME280;3464;42.728;23.296;2022-10-04T01:14:03;95449.65;;;15.66;61.79
6851;BME280;3464;42.728;23.296;2022-10-04T01:16:28;95451.58;;;15.38;62.34
6851;BME280;3464;42.728;23.296;2022-10-04T01:18:55;95453.03;;;16.13;60.46
6851;BME280;3464;42.728;23.296;2022-10-04T01:21:25;95441.39;;;15.93;60.51
6851;BME280;3464;42.728;23.296;2022-10-04T01:26:36;95445.02;;;15.65;61.21
6851;BME280;3464;42.728;23.296;2022-10-04T01:29:09;95445.97;;;15.52;61.23
6851;BME280;3464;42.728;23.296;2022-10-04T01:31:35;95437.63;;;15.38;61.84
6851;BME280;3464;42.728;23.296;2022-10-04T01:34:01;95440.26;;;15.19;62.24
6851;BME280;3464;42.728;23.296;2022-10-04T01:36:27;95436.48;;;15.12;62.25
6851;BME280;3464;42.728;23.296;2022-10-04T01:38:54;95442.49;;;14.94;62.75
6851;BME280;3464;42.728;23.296;2022-10-04T01:41:23;95439.80;;;15.23;61.97
6851;BME280;3464;42.728;23.296;2022-10-04T01:43:48;95437.69;;;15.25;61.92
6851;BME280;3464;42.728;23.296;2022-10-04T01:46:18;95442.39;;;15.18;62.13
6851;BME280;3464;42.728;23.296;2022-10-04T01:48:42;95437.80;;;15.05;62.25
6851;BME280;3464;42.728;23.296;2022-10-04T01:51:17;95442.45;;;15.03;62.18
6851;BME280;3464;42.728;23.296;2022-10-04T01:53:44;95445.48;;;14.92;62.25
6851;BME280;3464;42.728;23.296;2022-10-04T01:56:14;95443.73;;;14.99;62.25
6851;BME280;3464;42.728;23.296;2022-10-04T01:58:51;95446.75;;;14.90;62.44
6851;BME280;3464;42.728;23.296;2022-10-04T02:01:33;95448.89;;;14.86;62.43
6851;BME280;3464;42.728;23.296;2022-10-04T02:04:01;95445.81;;;15.06;62.12
6851;BME280;3464;42.728;23.296;2022-10-04T02:06:26;95445.84;;;15.02;61.81
6851;BME280;3464;42.728;23.296;2022-10-04T02:08:55;95450.95;;;15.00;62.12
6851;BME280;3464;42.728;23.296;2022-10-04T02:11:23;95458.16;;;14.91;62.45
6851;BME280;3464;42.728;23.296;2022-10-04T02:13:50;95456.48;;;14.88;62.33
6851;BME280;3464;42.728;23.296;2022-10-04T02:16:16;95452.12;;;15.14;61.88
6851;BME280;3464;42.728;23.296;2022-10-04T02:18:42;95450.87;;;15.11;61.84
6851;BME280;3464;42.728;23.296;2022-10-04T02:21:10;95461.16;;;14.82;62.67
6851;BME280;3464;42.728;23.296;2022-10-04T02:23:37;95450.02;;;15.13;62.01
6851;BME280;3464;42.728;23.296;2022-10-04T02:26:04;95458.56;;;14.93;62.49
6851;BME280;3464;42.728;23.296;2022-10-04T02:28:31;95458.86;;;15.17;62.16
6851;BME280;3464;42.728;23.296;2022-10-04T02:30:57;95460.25;;;14.93;62.28
6851;BME280;3464;42.728;23.296;2022-10-04T02:33:42;95469.89;;;15.08;62.45
6851;BME280;3464;42.728;23.296;2022-10-04T02:36:08;95467.78;;;15.08;62.46
6851;BME280;3464;42.728;23.296;2022-10-04T02:38:36;95466.02;;;15.21;62.01
6851;BME280;3464;42.728;23.296;2022-10-04T02:41:04;95467.76;;;15.12;62.06
6851;BME280;3464;42.728;23.296;2022-10-04T02:46:10;95480.76;;;15.28;61.90
6851;BME280;3464;42.728;23.296;2022-10-04T02:48:55;95481.20;;;15.26;61.66
6851;BME280;3464;42.728;23.296;2022-10-04T02:51:32;95485.95;;;15.08;62.50
6851;BME280;3464;42.728;23.296;2022-10-04T02:54:17;95485.39;;;15.30;61.94
6851;BME280;3464;42.728;23.296;2022-10-04T02:56:41;95476.09;;;15.33;61.77
6851;BME280;3464;42.728;23.296;2022-10-04T02:59:10;95476.97;;;15.27;61.93
6851;BME280;3464;42.728;23.296;2022-10-04T03:01:40;95489.73;;;15.10;62.64
6851;BME280;3464;42.728;23.296;2022-10-04T03:04:05;95490.13;;;15.17;62.47
6851;BME280;3464;42.728;23.296;2022-10-04T03:06:32;95492.64;;;15.21;62.22
6851;BME280;3464;42.728;23.296;2022-10-04T03:08:59;95481.66;;;15.20;62.34
6851;BME280;3464;42.728;23.296;2022-10-04T03:11:27;95489.31;;;15.15;61.98
6851;BME280;3464;42.728;23.296;2022-10-04T03:13:54;95487.64;;;15.09;62.76
6851;BME280;3464;42.728;23.296;2022-10-04T03:16:18;95491.83;;;15.18;62.36
6851;BME280;3464;42.728;23.296;2022-10-04T03:18:45;95489.82;;;14.97;62.83
6851;BME280;3464;42.728;23.296;2022-10-04T03:21:12;95493.28;;;14.79;63.42
6851;BME280;3464;42.728;23.296;2022-10-04T03:23:38;95493.31;;;14.72;64.62
6851;BME280;3464;42.728;23.296;2022-10-04T03:26:13;95501.82;;;14.51;65.07
6851;BME280;3464;42.728;23.296;2022-10-04T03:28:36;95505.53;;;14.71;64.52
6851;BME280;3464;42.728;23.296;2022-10-04T03:31:03;95498.43;;;14.52;64.58
6851;BME280;3464;42.728;23.296;2022-10-04T03:33:29;95503.14;;;14.31;65.98
6851;BME280;3464;42.728;23.296;2022-10-04T03:35:57;95516.12;;;14.69;64.78
6851;BME280;3464;42.728;23.296;2022-10-04T03:38:23;95513.13;;;14.72;64.46
6851;BME280;3464;42.728;23.296;2022-10-04T03:40:58;95518.19;;;14.80;64.62
6851;BME280;3464;42.728;23.296;2022-10-04T03:43:28;95523.16;;;15.02;63.78
6851;BME280;3464;42.728;23.296;2022-10-04T03:45:53;95519.96;;;14.52;65.66
6851;BME280;3464;42.728;23.296;2022-10-04T03:48:24;95517.72;;;14.92;64.12
6851;BME280;3464;42.728;23.296;2022-10-04T03:50:48;95517.88;;;14.47;65.02
6851;BME280;3464;42.728;23.296;2022-10-04T03:53:50;95520.41;;;14.49;65.50
6851;BME280;3464;42.728;23.296;2022-10-04T03:55:59;95519.53;;;14.60;64.95
6851;BME280;3464;42.728;23.296;2022-10-04T03:58:26;95529.29;;;14.41;66.00
6851;BME280;3464;42.728;23.296;2022-10-04T04:01:02;95522.41;;;14.78;64.83
6851;BME280;3464;42.728;23.296;2022-10-04T04:03:25;95528.77;;;14.79;65.07
6851;BME280;3464;42.728;23.296;2022-10-04T04:05:52;95531.41;;;14.29;66.18
6851;BME280;3464;42.728;23.296;2022-10-04T04:08:36;95530.05;;;14.69;65.70
6851;BME280;3464;42.728;23.296;2022-10-04T04:11:03;95531.68;;;14.88;64.68
6851;BME280;3464;42.728;23.296;2022-10-04T04:13:40;95534.22;;;14.81;64.83
6851;BME280;3464;42.728;23.296;2022-10-04T04:16:04;95543.20;;;14.39;65.92
6851;BME280;3464;42.728;23.296;2022-10-04T04:18:32;95540.67;;;14.43;66.15
6851;BME280;3464;42.728;23.296;2022-10-04T04:20:59;95537.58;;;14.92;65.21
6851;BME280;3464;42.728;23.296;2022-10-04T04:23:29;95544.83;;;14.71;65.33
6851;BME280;3464;42.728;23.296;2022-10-04T04:25:57;95550.70;;;14.86;64.95
6851;BME280;3464;42.728;23.296;2022-10-04T04:28:33;95548.60;;;14.80;64.76
6851;BME280;3464;42.728;23.296;2022-10-04T04:31:01;95553.84;;;15.36;63.68
6851;BME280;3464;42.728;23.296;2022-10-04T04:33:28;95547.67;;;15.00;64.46
6851;BME280;3464;42.728;23.296;2022-10-04T04:36:01;95547.70;;;14.98;64.75
6851;BME280;3464;42.728;23.296;2022-10-04T04:38:24;95550.67;;;14.94;64.76
6851;BME280;3464;42.728;23.296;2022-10-04T04:40:49;95548.44;;;15.18;64.05
6851;BME280;3464;42.728;23.296;2022-10-04T04:43:17;95549.87;;;14.71;65.22
6851;BME280;3464;42.728;23.296;2022-10-04T04:45:43;95541.87;;;14.68;65.28
6851;BME280;3464;42.728;23.296;2022-10-04T04:48:10;95548.53;;;14.99;64.71
6851;BME280;3464;42.728;23.296;2022-10-04T04:50:38;95548.45;;;15.15;64.26
6851;BME280;3464;42.728;23.296;2022-10-04T04:53:22;95552.98;;;15.44;63.39
6851;BME280;3464;42.728;23.296;2022-10-04T04:55:50;95556.90;;;15.20;64.02
6851;BME280;3464;42.728;23.296;2022-10-04T04:58:18;95562.03;;;15.04;63.91
6851;BME280;3464;42.728;23.296;2022-10-04T05:00:44;95564.87;;;15.32;63.82
6851;BME280;3464;42.728;23.296;2022-10-04T05:03:16;95558.13;;;15.28;63.49
6851;BME280;3464;42.728;23.296;2022-10-04T05:05:44;95554.12;;;16.23;62.06
6851;BME280;3464;42.728;23.296;2022-10-04T05:08:19;95553.22;;;18.31;58.57
6851;BME280;3464;42.728;23.296;2022-10-04T05:10:54;95545.78;;;19.35;54.86
6851;BME280;3464;42.728;23.296;2022-10-04T05:13:18;95551.59;;;19.80;52.38
6851;BME280;3464;42.728;23.296;2022-10-04T05:15:45;95546.17;;;19.93;51.53
6851;BME280;3464;42.728;23.296;2022-10-04T05:18:13;95556.22;;;19.01;52.58
6851;BME280;3464;42.728;23.296;2022-10-04T05:20:47;95569.63;;;18.15;53.87
6851;BME280;3464;42.728;23.296;2022-10-04T05:23:07;95572.02;;;17.36;55.37
6851;BME280;3464;42.728;23.296;2022-10-04T05:25:32;95570.81;;;17.30;56.29
6851;BME280;3464;42.728;23.296;2022-10-04T05:27:59;95565.48;;;16.76;57.29
6851;BME280;3464;42.728;23.296;2022-10-04T05:31:02;95570.37;;;16.96;58.15
6851;BME280;3464;42.728;23.296;2022-10-04T05:33:10;95554.58;;;19.82;52.64
6851;BME280;3464;42.728;23.296;2022-10-04T05:36:18;95554.16;;;22.17;48.34
6851;BME280;3464;42.728;23.296;2022-10-04T05:38:42;95561.04;;;23.41;45.46
6851;BME280;3464;42.728;23.296;2022-10-04T05:41:20;95559.41;;;22.77;45.34
6851;BME280;3464;42.728;23.296;2022-10-04T05:43:44;95563.53;;;23.54;44.79
6851;BME280;3464;42.728;23.296;2022-10-04T05:49:01;95567.13;;;24.80;41.80
6851;BME280;3464;42.728;23.296;2022-10-04T05:51:28;95571.27;;;24.11;41.57
6851;BME280;3464;42.728;23.296;2022-10-04T05:53:57;95577.39;;;23.62;43.25
6851;BME280;3464;42.728;23.296;2022-10-04T05:56:51;95584.84;;;24.25;42.43
6851;BME280;3464;42.728;23.296;2022-10-04T05:59:35;95590.09;;;24.96;41.03
6851;BME280;3464;42.728;23.296;2022-10-04T06:07:39;95598.32;;;25.53;39.63
6851;BME280;3464;42.728;23.296;2022-10-04T06:10:08;95602.88;;;25.27;40.09
6851;BME280;3464;42.728;23.296;2022-10-04T06:12:49;95601.70;;;25.45;39.67
6851;BME280;3464;42.728;23.296;2022-10-04T06:18:02;95604.77;;;26.28;38.10
6851;BME280;3464;42.728;23.296;2022-10-04T06:20:46;95603.83;;;26.39;37.99
6851;BME280;3464;42.728;23.296;2022-10-04T06:23:13;95618.09;;;24.62;39.79
6851;BME280;3464;42.728;23.296;2022-10-04T06:25:57;95613.81;;;24.61;39.85
6851;BME280;3464;42.728;23.296;2022-10-04T06:28:28;95622.34;;;24.09;41.27
6851;BME280;3464;42.728;23.296;2022-10-04T06:31:03;95616.68;;;23.88;41.49
6851;BME280;3464;42.728;23.296;2022-10-04T06:33:35;95617.83;;;23.33;42.59
6851;BME280;3464;42.728;23.296;2022-10-04T06:36:25;95621.18;;;21.15;45.94
6851;BME280;3464;42.728;23.296;2022-10-04T06:39:11;95629.16;;;21.20;46.34
6851;BME280;3464;42.728;23.296;2022-10-04T06:41:43;95629.86;;;20.76;47.48
6851;BME280;3464;42.728;23.296;2022-10-04T06:44:18;95628.39;;;21.47;46.40
6851;BME280;3464;42.728;23.296;2022-10-04T06:46:49;95637.00;;;20.98;47.58
6851;BME280;3464;42.728;23.296;2022-10-04T06:52:21;95635.22;;;21.01;47.35
6851;BME280;3464;42.728;23.296;2022-10-04T06:54:59;95643.95;;;20.91;47.69
6851;BME280;3464;42.728;23.296;2022-10-04T06:57:39;95640.74;;;20.32;47.95
6851;BME280;3464;42.728;23.296;2022-10-04T07:00:16;95644.37;;;20.40;48.42
6851;BME280;3464;42.728;23.296;2022-10-04T07:02:42;95646.88;;;21.89;46.08
6851;BME280;3464;42.728;23.296;2022-10-04T07:07:52;95642.73;;;20.37;47.24
6851;BME280;3464;42.728;23.296;2022-10-04T07:10:24;95647.64;;;20.64;46.71
6851;BME280;3464;42.728;23.296;2022-10-04T07:13:03;95654.84;;;20.10;47.60
6851;BME280;3464;42.728;23.296;2022-10-04T07:15:23;95659.55;;;19.89;48.11
6851;BME280;3464;42.728;23.296;2022-10-04T07:17:50;95656.73;;;19.82;48.22
6851;BME280;3464;42.728;23.296;2022-10-04T07:20:22;95661.28;;;19.24;48.99
6851;BME280;3464;42.728;23.296;2022-10-04T07:22:54;95663.78;;;19.49;49.54
6851;BME280;3464;42.728;23.296;2022-10-04T07:25:25;95665.17;;;19.44;48.32
6851;BME280;3464;42.728;23.296;2022-10-04T07:27:57;95663.40;;;20.08;47.87
6851;BME280;3464;42.728;23.296;2022-10-04T07:30:29;95666.85;;;19.85;47.01
6851;BME280;3464;42.728;23.296;2022-10-04T07:32:55;95669.72;;;19.71;48.13
6851;BME280;3464;42.728;23.296;2022-10-04T07:35:29;95668.86;;;20.32;46.67
6851;BME280;3464;42.728;23.296;2022-10-04T07:37:58;95679.63;;;19.65;47.38
6851;BME280;3464;42.728;23.296;2022-10-04T07:40:27;95673.85;;;20.18;47.13
6851;BME280;3464;42.728;23.296;2022-10-04T07:42:54;95671.36;;;20.34;46.05
6851;BME280;3464;42.728;23.296;2022-10-04T07:45:30;95672.90;;;20.77;45.29
6851;BME280;3464;42.728;23.296;2022-10-04T07:48:09;95667.56;;;20.86;45.59
6851;BME280;3464;42.728;23.296;2022-10-04T07:50:34;95672.65;;;20.70;45.26
6851;BME280;3464;42.728;23.296;2022-10-04T07:53:03;95671.28;;;20.91;44.40
6851;BME280;3464;42.728;23.296;2022-10-04T07:58:10;95675.17;;;21.06;44.49
6851;BME280;3464;42.728;23.296;2022-10-04T08:00:37;95678.72;;;20.83;44.55
6851;BME280;3464;42.728;23.296;2022-10-04T08:03:21;95679.01;;;20.72;44.91
6851;BME280;3464;42.728;23.296;2022-10-04T08:05:48;95680.11;;;20.61;44.54
6851;BME280;3464;42.728;23.296;2022-10-04T08:08:43;95681.10;;;20.56;44.28
6851;BME280;3464;42.728;23.296;2022-10-04T08:11:20;95677.90;;;20.47;44.55
6851;BME280;3464;42.728;23.296;2022-10-04T08:13:52;95680.02;;;20.29;44.52
6851;BME280;3464;42.728;23.296;2022-10-04T08:17:27;95684.80;;;20.04;44.58
6851;BME280;3464;42.728;23.296;2022-10-04T08:19:12;95680.66;;;19.77;44.94
6851;BME280;3464;42.728;23.296;2022-10-04T08:21:40;95686.17;;;20.21;44.36
6851;BME280;3464;42.728;23.296;2022-10-04T08:32:00;95672.50;;;21.28;43.29
6851;BME280;3464;42.728;23.296;2022-10-04T08:34:57;95669.52;;;21.27;42.71
6851;BME280;3464;42.728;23.296;2022-10-04T08:37:31;95672.03;;;22.19;41.58
6851;BME280;3464;42.728;23.296;2022-10-04T08:40:00;95667.09;;;21.68;42.30
6851;BME280;3464;42.728;23.296;2022-10-04T08:42:26;95658.78;;;22.20;41.63
6851;BME280;3464;42.728;23.296;2022-10-04T08:45:07;95661.63;;;21.96;42.08
6851;BME280;3464;42.728;23.296;2022-10-04T08:50:48;95669.70;;;21.82;42.23
6851;BME280;3464;42.728;23.296;2022-10-04T08:53:23;95670.71;;;22.07;41.92
6851;BME280;3464;42.728;23.296;2022-10-04T08:55:54;95666.69;;;22.38;41.50
6851;BME280;3464;42.728;23.296;2022-10-04T08:58:24;95674.38;;;22.40;41.41
6851;BME280;3464;42.728;23.296;2022-10-04T09:01:30;95676.64;;;21.47;41.98
6851;BME280;3464;42.728;23.296;2022-10-04T09:06:50;95675.05;;;21.44;41.98
6851;BME280;3464;42.728;23.296;2022-10-04T09:10:05;95676.06;;;21.99;41.93
6851;BME280;3464;42.728;23.296;2022-10-04T09:12:13;95677.03;;;21.33;42.25
6851;BME280;3464;42.728;23.296;2022-10-04T09:14:54;95679.51;;;21.52;42.76
6851;BME280;3464;42.728;23.296;2022-10-04T09:17:19;95682.19;;;21.47;42.96
6851;BME280;3464;42.728;23.296;2022-10-04T09:19:54;95679.48;;;21.84;42.43
6851;BME280;3464;42.728;23.296;2022-10-04T09:22:34;95679.18;;;21.64;42.88
6851;BME280;3464;42.728;23.296;2022-10-04T09:25:04;95684.61;;;22.41;41.42
6851;BME280;3464;42.728;23.296;2022-10-04T09:27:32;95679.00;;;22.58;41.28
6851;BME280;3464;42.728;23.296;2022-10-04T09:30:00;95687.13;;;22.84;40.83
6851;BME280;3464;42.728;23.296;2022-10-04T09:35:20;95679.56;;;21.81;41.82
6851;BME280;3464;42.728;23.296;2022-10-04T09:43:16;95687.34;;;23.29;40.63
6851;BME280;3464;42.728;23.296;2022-10-04T09:48:28;95682.66;;;23.53;40.32
6851;BME280;3464;42.728;23.296;2022-10-04T09:51:06;95686.31;;;22.56;40.67
6851;BME280;3464;42.728;23.296;2022-10-04T09:53:45;95687.77;;;23.16;40.74
6851;BME280;3464;42.728;23.296;2022-10-04T09:56:33;95681.92;;;22.99;40.25
6851;BME280;3464;42.728;23.296;2022-10-04T09:59:22;95672.86;;;23.51;39.26
6851;BME280;3464;42.728;23.296;2022-10-04T10:02:03;95678.59;;;23.95;39.65
6851;BME280;3464;42.728;23.296;2022-10-04T10:04:47;95677.16;;;23.63;39.29
6851;BME280;3464;42.728;23.296;2022-10-04T10:07:33;95683.22;;;22.99;40.44
6851;BME280;3464;42.728;23.296;2022-10-04T10:13:02;95688.98;;;22.66;41.22
6851;BME280;3464;42.728;23.296;2022-10-04T10:15:57;95691.65;;;21.77;42.43
6851;BME280;3464;42.728;23.296;2022-10-04T10:18:26;95690.58;;;22.14;42.77
6851;BME280;3464;42.728;23.296;2022-10-04T10:21:45;95691.64;;;22.49;41.48
6851;BME280;3464;42.728;23.296;2022-10-04T10:24:08;95690.35;;;22.50;41.60
6851;BME280;3464;42.728;23.296;2022-10-04T10:26:53;95685.50;;;22.12;41.31
6851;BME280;3464;42.728;23.296;2022-10-04T10:29:30;95687.47;;;21.89;41.83
6851;BME280;3464;42.728;23.296;2022-10-04T10:32:25;95684.85;;;22.61;41.25
6851;BME280;3464;42.728;23.296;2022-10-04T10:40:28;95685.42;;;21.38;42.51
6851;BME280;3464;42.728;23.296;2022-10-04T10:43:34;95688.50;;;21.82;42.02
6851;BME280;3464;42.728;23.296;2022-10-04T10:46:24;95694.78;;;22.44;41.22
6851;BME280;3464;42.728;23.296;2022-10-04T10:57:21;95687.22;;;22.68;40.83
6851;BME280;3464;42.728;23.296;2022-10-04T11:02:33;95691.35;;;22.16;41.54
6851;BME280;3464;42.728;23.296;2022-10-04T11:05:26;95690.29;;;21.95;41.36
6851;BME280;3464;42.728;23.296;2022-10-04T11:07:54;95685.13;;;21.50;42.30
6851;BME280;3464;42.728;23.296;2022-10-04T11:27:19;95674.48;;;23.65;39.21
6851;BME280;3464;42.728;23.296;2022-10-04T11:30:08;95669.81;;;23.53;39.71
6851;BME280;3464;42.728;23.296;2022-10-04T11:32:42;95683.11;;;23.28;39.26
6851;BME280;3464;42.728;23.296;2022-10-04T11:40:35;95692.09;;;23.15;40.22
6851;BME280;3464;42.728;23.296;2022-10-04T11:48:30;95681.31;;;22.52;40.54
6851;BME280;3464;42.728;23.296;2022-10-04T11:56:57;95684.70;;;23.91;38.82
6851;BME280;3464;42.728;23.296;2022-10-04T11:59:23;95691.07;;;23.58;38.83
6851;BME280;3464;42.728;23.296;2022-10-04T12:02:16;95688.41;;;22.71;40.01
6851;BME280;3464;42.728;23.296;2022-10-04T12:04:51;95691.39;;;23.10;39.46
6851;BME280;3464;42.728;23.296;2022-10-04T12:15:59;95686.98;;;24.34;36.84
6851;BME280;3464;42.728;23.296;2022-10-04T12:18:50;95679.61;;;23.55;38.04
6851;BME280;3464;42.728;23.296;2022-10-04T12:21:37;95682.84;;;24.95;36.52
6851;BME280;3464;42.728;23.296;2022-10-04T12:24:17;95684.34;;;23.89;37.63
6851;BME280;3464;42.728;23.296;2022-10-04T12:26:53;95688.64;;;24.35;37.16
6851;BME280;3464;42.728;23.296;2022-10-04T12:29:24;95688.46;;;24.84;36.42
6851;BME280;3464;42.728;23.296;2022-10-04T12:31:52;95693.27;;;24.27;37.23
6851;BME280;3464;42.728;23.296;2022-10-04T12:37:24;95689.31;;;23.83;37.58
6851;BME280;3464;42.728;23.296;2022-10-04T12:39:56;95699.20;;;22.93;39.19
6851;BME280;3464;42.728;23.296;2022-10-04T12:43:08;95696.28;;;22.37;39.48
6851;BME280;3464;42.728;23.296;2022-10-04T12:46:06;95702.61;;;22.40;39.00
6851;BME280;3464;42.728;23.296;2022-10-04T12:51:10;95696.84;;;23.40;38.64
6851;BME280;3464;42.728;23.296;2022-10-04T12:53:59;95705.14;;;22.96;38.94
6851;BME280;3464;42.728;23.296;2022-10-04T12:56:45;95701.68;;;22.96;38.35
6851;BME280;3464;42.728;23.296;2022-10-04T12:59:29;95694.40;;;22.97;38.41
6851;BME280;3464;42.728;23.296;2022-10-04T13:04:46;95696.64;;;22.67;38.94
6851;BME280;3464;42.728;23.296;2022-10-04T13:07:27;95697.58;;;22.79;39.37
6851;BME280;3464;42.728;23.296;2022-10-04T13:09:57;95690.83;;;22.20;40.01
6851;BME280;3464;42.728;23.296;2022-10-04T13:12:55;95692.51;;;22.07;40.50
6851;BME280;3464;42.728;23.296;2022-10-04T13:15:25;95686.40;;;21.82;40.93
6851;BME280;3464;42.728;23.296;2022-10-04T13:18:08;95695.97;;;21.27;41.14
6851;BME280;3464;42.728;23.296;2022-10-04T13:23:41;95700.53;;;21.64;40.96
6851;BME280;3464;42.728;23.296;2022-10-04T13:32:01;95694.50;;;21.18;41.89
6851;BME280;3464;42.728;23.296;2022-10-04T13:37:56;95693.30;;;20.80;42.00
6851;BME280;3464;42.728;23.296;2022-10-04T13:43:23;95693.88;;;21.10;41.83
6851;BME280;3464;42.728;23.296;2022-10-04T13:46:01;95702.53;;;21.37;41.42
6851;BME280;3464;42.728;23.296;2022-10-04T13:48:32;95699.31;;;21.30;41.25
6851;BME280;3464;42.728;23.296;2022-10-04T13:51:12;95711.34;;;21.43;41.38
6851;BME280;3464;42.728;23.296;2022-10-04T13:59:16;95719.27;;;20.81;42.82
6851;BME280;3464;42.728;23.296;2022-10-04T14:01:53;95717.13;;;21.34;41.84
6851;BME280;3464;42.728;23.296;2022-10-04T14:04:36;95720.50;;;21.36;41.51
6851;BME280;3464;42.728;23.296;2022-10-04T14:07:22;95720.59;;;21.16;41.95
6851;BME280;3464;42.728;23.296;2022-10-04T14:09:51;95726.51;;;21.51;40.99
6851;BME280;3464;42.728;23.296;2022-10-04T14:12:52;95731.28;;;21.47;41.24
6851;BME280;3464;42.728;23.296;2022-10-04T14:15:02;95727.47;;;21.14;41.15
6851;BME280;3464;42.728;23.296;2022-10-04T14:34:31;95748.44;;;19.95;43.36
6851;BME280;3464;42.728;23.296;2022-10-04T14:37:02;95752.36;;;20.33;43.45
6851;BME280;3464;42.728;23.296;2022-10-04T14:39:43;95754.22;;;20.26;43.84
6851;BME280;3464;42.728;23.296;2022-10-04T14:42:13;95758.56;;;20.42;43.51
6851;BME280;3464;42.728;23.296;2022-10-04T14:44:58;95751.96;;;20.70;43.56
6851;BME280;3464;42.728;23.296;2022-10-04T14:47:36;95758.54;;;20.00;44.49
6851;BME280;3464;42.728;23.296;2022-10-04T14:53:24;95766.64;;;20.01;44.68
6851;BME280;3464;42.728;23.296;2022-10-04T14:59:45;95776.98;;;19.73;45.71
6851;BME280;3464;42.728;23.296;2022-10-04T15:07:38;95788.28;;;19.36;46.68
6851;BME280;3464;42.728;23.296;2022-10-04T15:10:11;95785.57;;;19.19;46.73
6851;BME280;3464;42.728;23.296;2022-10-04T15:12:41;95793.39;;;19.36;46.82
6851;BME280;3464;42.728;23.296;2022-10-04T15:15:30;95790.62;;;19.47;46.55
6851;BME280;3464;42.728;23.296;2022-10-04T15:17:57;95799.28;;;19.64;46.81
6851;BME280;3464;42.728;23.296;2022-10-04T15:23:14;95804.03;;;20.05;46.40
6851;BME280;3464;42.728;23.296;2022-10-04T15:25:42;95801.51;;;19.58;46.91
6851;BME280;3464;42.728;23.296;2022-10-04T15:28:34;95806.33;;;19.74;46.99
6851;BME280;3464;42.728;23.296;2022-10-04T15:36:38;95817.47;;;19.47;47.43
6851;BME280;3464;42.728;23.296;2022-10-04T15:39:06;95817.23;;;19.34;48.05
6851;BME280;3464;42.728;23.296;2022-10-04T15:41:47;95823.50;;;19.15;48.48
6851;BME280;3464;42.728;23.296;2022-10-04T15:48:00;95829.47;;;18.56;49.49
6851;BME280;3464;42.728;23.296;2022-10-04T15:50:29;95831.06;;;18.63;49.45
6851;BME280;3464;42.728;23.296;2022-10-04T15:53:16;95840.55;;;18.53;49.89
6851;BME280;3464;42.728;23.296;2022-10-04T15:58:45;95841.11;;;18.75;49.62
6851;BME280;3464;42.728;23.296;2022-10-04T16:01:36;95838.20;;;18.69;49.85
6851;BME280;3464;42.728;23.296;2022-10-04T16:04:24;95844.80;;;18.53;50.18
6851;BME280;3464;42.728;23.296;2022-10-04T16:06:55;95844.34;;;18.19;50.46
6851;BME280;3464;42.728;23.296;2022-10-04T16:09:38;95842.42;;;18.39;50.41
6851;BME280;3464;42.728;23.296;2022-10-04T16:12:24;95848.97;;;18.21;50.77
6851;BME280;3464;42.728;23.296;2022-10-04T16:15:13;95854.41;;;18.95;49.54
6851;BME280;3464;42.728;23.296;2022-10-04T16:17:56;95854.81;;;18.96;49.54
6851;BME280;3464;42.728;23.296;2022-10-04T16:23:31;95865.62;;;18.53;50.50
6851;BME280;3464;42.728;23.296;2022-10-04T16:25:59;95863.45;;;18.88;49.58
6851;BME280;3464;42.728;23.296;2022-10-04T16:28:36;95870.30;;;18.85;49.74
6851;BME280;3464;42.728;23.296;2022-10-04T16:31:13;95872.83;;;18.87;49.95
6851;BME280;3464;42.728;23.296;2022-10-04T16:33:59;95882.22;;;18.52;51.00
6851;BME280;3464;42.728;23.296;2022-10-04T16:36:27;95884.07;;;18.35;51.15
6851;BME280;3464;42.728;23.296;2022-10-04T16:38:53;95889.45;;;18.49;51.18
6851;BME280;3464;42.728;23.296;2022-10-04T16:41:31;95887.30;;;18.53;51.11
6851;BME280;3464;42.728;23.296;2022-10-04T16:43:54;95887.11;;;18.67;51.03
6851;BME280;3464;42.728;23.296;2022-10-04T16:46:28;95892.65;;;18.65;51.13
6851;BME280;3464;42.728;23.296;2022-10-04T16:48:53;95896.23;;;18.51;51.57
6851;BME280;3464;42.728;23.296;2022-10-04T16:54:28;95906.37;;;18.58;51.71
6851;BME280;3464;42.728;23.296;2022-10-04T16:57:10;95907.91;;;18.71;51.42
6851;BME280;3464;42.728;23.296;2022-10-04T16:59:46;95913.71;;;18.47;51.73